createdAt,value
2018-12-21T00:01:25.340Z,4.70
2018-12-21T00:03:55.769Z,4.70
2018-12-21T00:06:26.360Z,4.80
2018-12-21T00:08:56.718Z,4.70
2018-12-21T00:11:27.120Z,4.80
2018-12-21T00:13:57.526Z,4.80
2018-12-21T00:16:27.894Z,4.80
2018-12-21T00:18:58.249Z,4.70
2018-12-21T00:21:28.614Z,4.70
2018-12-21T00:23:59.042Z,4.70
2018-12-21T00:26:29.396Z,4.60
2018-12-21T00:28:59.732Z,4.60
2018-12-21T00:31:35.547Z,4.60
2018-12-21T00:34:11.412Z,4.60
2018-12-21T00:36:53.471Z,4.70
2018-12-21T00:39:39.725Z,4.70
2018-12-21T00:42:12.016Z,4.60
2018-12-21T00:44:42.368Z,4.60
2018-12-21T00:47:13.880Z,4.90
2018-12-21T00:49:44.342Z,4.80
2018-12-21T00:52:14.801Z,4.90
2018-12-21T00:54:45.146Z,4.80
2018-12-21T00:57:16.497Z,4.80
2018-12-21T00:59:54.423Z,4.90
2018-12-21T01:02:25.747Z,4.90
2018-12-21T01:05:14.491Z,5.00
2018-12-21T01:07:45.018Z,4.90
2018-12-21T01:10:15.513Z,5.00
2018-12-21T01:12:45.881Z,4.90
2018-12-21T01:15:16.290Z,5.00
2018-12-21T01:17:46.718Z,5.00
2018-12-21T01:20:17.060Z,5.10
2018-12-21T01:22:47.431Z,5.10
2018-12-21T01:25:17.794Z,5.00
2018-12-21T01:27:48.151Z,4.90
2018-12-21T01:30:18.512Z,5.00
2018-12-21T01:32:48.950Z,5.00
2018-12-21T01:35:19.320Z,5.00
2018-12-21T01:37:49.671Z,5.00
2018-12-21T01:40:20.030Z,5.00
2018-12-21T01:42:50.396Z,5.00
2018-12-21T01:45:20.752Z,5.00
2018-12-21T01:47:51.544Z,5.00
2018-12-21T01:50:21.906Z,5.00
2018-12-21T01:52:52.271Z,5.00
2018-12-21T01:55:22.614Z,5.00
2018-12-21T01:57:52.961Z,5.10
2018-12-21T02:00:23.313Z,5.10
2018-12-21T02:02:53.671Z,5.00
2018-12-21T02:05:24.042Z,5.00
2018-12-21T02:07:54.398Z,5.10
2018-12-21T02:10:24.761Z,5.00
2018-12-21T02:12:55.229Z,4.90
2018-12-21T02:15:25.876Z,5.00
2018-12-21T02:17:56.320Z,4.90
2018-12-21T02:20:26.784Z,4.90
2018-12-21T02:22:57.162Z,5.10
2018-12-21T02:25:27.532Z,5.10
2018-12-21T02:27:57.878Z,5.00
2018-12-21T02:33:14.797Z,5.10
2018-12-21T02:35:45.146Z,5.00
2018-12-21T02:38:15.520Z,5.00
2018-12-21T02:40:45.869Z,5.00
2018-12-21T02:43:16.231Z,5.10
2018-12-21T02:45:46.593Z,5.20
2018-12-21T02:48:16.966Z,5.10
2018-12-21T02:50:47.325Z,5.30
2018-12-21T02:53:17.685Z,5.20
2018-12-21T02:55:48.047Z,5.30
2018-12-21T02:58:18.464Z,5.30
2018-12-21T03:00:48.820Z,5.30
2018-12-21T03:03:19.179Z,5.20
2018-12-21T03:05:49.918Z,5.20
2018-12-21T03:08:20.273Z,5.30
2018-12-21T03:10:50.627Z,5.30
2018-12-21T03:13:20.965Z,5.30
2018-12-21T03:15:51.345Z,5.30
2018-12-21T03:18:21.699Z,5.10
2018-12-21T03:20:52.046Z,5.20
2018-12-21T03:23:22.402Z,5.20
2018-12-21T03:25:52.902Z,5.30
2018-12-21T03:28:23.532Z,5.20
2018-12-21T03:30:53.899Z,5.20
2018-12-21T03:33:25.355Z,5.30
2018-12-21T03:35:55.754Z,5.30
2018-12-21T03:38:26.389Z,5.30
2018-12-21T03:40:56.770Z,5.30
2018-12-21T03:43:27.140Z,5.30
2018-12-21T03:45:57.530Z,5.30
2018-12-21T03:48:29.348Z,5.20
2018-12-21T03:50:59.698Z,5.30
2018-12-21T03:53:30.505Z,5.30
2018-12-21T03:56:00.866Z,5.30
2018-12-21T03:58:31.219Z,5.30
2018-12-21T04:01:02.136Z,5.40
2018-12-21T04:03:32.477Z,5.30
2018-12-21T04:06:03.745Z,5.30
2018-12-21T04:08:34.088Z,5.30
2018-12-21T04:11:04.454Z,5.40
2018-12-21T04:13:34.829Z,5.30
2018-12-21T04:16:05.174Z,5.40
2018-12-21T04:18:35.544Z,5.30
2018-12-21T04:21:05.968Z,5.50
2018-12-21T04:23:36.330Z,5.30
2018-12-21T04:26:06.698Z,5.30
2018-12-21T04:28:37.069Z,5.30
2018-12-21T04:31:07.422Z,5.30
2018-12-21T04:33:37.775Z,5.40
2018-12-21T04:36:08.138Z,5.30
2018-12-21T04:38:38.491Z,5.30
2018-12-21T04:41:08.829Z,5.30
2018-12-21T04:43:39.192Z,5.40
2018-12-21T04:46:09.574Z,5.40
2018-12-21T04:48:39.934Z,5.50
2018-12-21T04:51:10.313Z,5.40
2018-12-21T04:53:40.662Z,5.40
2018-12-21T04:56:11.045Z,5.30
2018-12-21T04:58:41.419Z,5.30
2018-12-21T05:01:17.076Z,5.40
2018-12-21T05:03:47.435Z,5.30
2018-12-21T05:06:17.824Z,5.40
2018-12-21T05:08:48.180Z,5.40
2018-12-21T05:11:18.553Z,5.50
2018-12-21T05:13:48.920Z,5.40
2018-12-21T05:16:19.312Z,5.40
2018-12-21T05:18:49.658Z,5.40
2018-12-21T05:21:20.052Z,5.40
2018-12-21T05:23:50.404Z,5.40
2018-12-21T05:26:20.786Z,5.50
2018-12-21T05:28:51.135Z,5.50
2018-12-21T05:31:28.296Z,5.60
2018-12-21T05:33:54.910Z,5.60
2018-12-21T05:36:26.227Z,5.60
2018-12-21T05:38:56.587Z,5.60
2018-12-21T05:41:27.067Z,5.80
2018-12-21T05:43:59.022Z,5.80
2018-12-21T05:46:29.829Z,5.80
2018-12-21T05:49:00.192Z,5.80
2018-12-21T05:51:31.073Z,5.90
2018-12-21T05:54:02.276Z,5.90
2018-12-21T05:56:32.675Z,5.90
2018-12-21T05:59:03.030Z,5.90
2018-12-21T06:01:36.383Z,6.00
2018-12-21T06:04:06.725Z,6.00
2018-12-21T06:06:37.082Z,6.10
2018-12-21T06:09:07.920Z,6.00
2018-12-21T06:11:38.287Z,6.00
2018-12-21T06:14:08.630Z,6.00
2018-12-21T06:16:38.985Z,6.10
2018-12-21T06:19:09.334Z,6.10
2018-12-21T06:21:39.807Z,6.20
2018-12-21T06:24:10.171Z,6.20
2018-12-21T06:26:40.849Z,6.10
2018-12-21T06:29:11.696Z,6.00
2018-12-21T06:31:42.066Z,6.00
2018-12-21T06:34:12.406Z,6.00
2018-12-21T06:36:42.758Z,5.90
2018-12-21T06:45:22.513Z,6.00
2018-12-21T06:47:53.156Z,5.90
2018-12-21T06:50:23.507Z,5.80
2018-12-21T06:52:54.029Z,5.80
2018-12-21T06:55:24.393Z,5.90
2018-12-21T06:58:08.717Z,5.70
2018-12-21T07:00:40.015Z,5.70
2018-12-21T07:03:17.053Z,5.70
2018-12-21T07:05:43.731Z,5.70
2018-12-21T07:08:15.568Z,5.60
2018-12-21T07:10:45.936Z,5.40
2018-12-21T07:13:21.632Z,5.40
2018-12-21T07:15:52.012Z,5.40
2018-12-21T07:21:31.322Z,5.30
2018-12-21T07:27:17.739Z,5.40
2018-12-21T07:29:48.112Z,5.30
2018-12-21T07:32:22.194Z,5.30
2018-12-21T07:35:02.266Z,5.30
2018-12-21T07:37:45.258Z,5.40
2018-12-21T07:40:27.797Z,5.30
2018-12-21T07:42:58.153Z,5.40
2018-12-21T07:45:40.236Z,5.40
2018-12-21T07:48:10.572Z,5.40
2018-12-21T07:50:53.467Z,5.30
2018-12-21T07:53:36.446Z,5.40
2018-12-21T07:56:08.267Z,5.40
2018-12-21T07:58:47.972Z,5.30
2018-12-21T08:01:24.328Z,5.40
2018-12-21T08:03:54.691Z,5.40
2018-12-21T08:06:30.808Z,5.40
2018-12-21T08:09:12.134Z,5.40
2018-12-21T08:11:49.544Z,5.40
2018-12-21T08:14:25.970Z,5.40
2018-12-21T08:17:06.037Z,5.50
2018-12-21T08:19:42.351Z,5.40
2018-12-21T08:22:18.771Z,5.40
2018-12-21T08:24:50.829Z,5.40
2018-12-21T08:27:22.534Z,5.30
2018-12-21T08:30:03.303Z,5.40
2018-12-21T08:32:33.651Z,5.40
2018-12-21T08:35:09.715Z,5.40
2018-12-21T08:37:47.149Z,5.40
2018-12-21T08:40:21.337Z,5.40
2018-12-21T08:42:51.788Z,5.40
2018-12-21T08:45:28.911Z,5.40
2018-12-21T08:48:02.712Z,5.40
2018-12-21T08:50:34.082Z,5.40
2018-12-21T08:53:07.374Z,5.50
2018-12-21T08:55:44.759Z,5.50
2018-12-21T08:58:21.271Z,5.40
2018-12-21T09:00:57.631Z,5.40
2018-12-21T09:03:33.949Z,5.40
2018-12-21T09:06:18.234Z,5.40
2018-12-21T09:08:48.859Z,5.50
2018-12-21T09:11:25.499Z,5.40
2018-12-21T09:14:09.734Z,5.40
2018-12-21T09:16:52.015Z,5.40
2018-12-21T09:19:27.836Z,5.50
2018-12-21T09:22:05.998Z,5.50
2018-12-21T09:24:42.542Z,5.50
2018-12-21T09:27:29.006Z,5.60
2018-12-21T09:30:10.331Z,5.70
2018-12-21T09:32:47.075Z,5.60
2018-12-21T09:35:17.425Z,5.70
2018-12-21T09:37:47.886Z,5.70
2018-12-21T09:40:18.247Z,5.80
2018-12-21T09:42:54.596Z,5.90
2018-12-21T09:45:30.901Z,5.80
2018-12-21T09:48:07.129Z,5.80
2018-12-21T09:50:43.316Z,5.90
2018-12-21T09:53:19.446Z,5.90
2018-12-21T09:56:02.111Z,5.90
2018-12-21T09:58:38.767Z,6.00
2018-12-21T10:01:14.816Z,6.10
2018-12-21T10:03:51.350Z,6.10
2018-12-21T10:06:22.919Z,6.10
2018-12-21T10:08:58.972Z,6.20
2018-12-21T10:11:29.381Z,6.20
2018-12-21T10:14:07.273Z,6.20
2018-12-21T10:19:49.178Z,6.40
2018-12-21T10:22:21.647Z,6.40
2018-12-21T10:24:58.323Z,6.50
2018-12-21T10:27:28.691Z,6.50
2018-12-21T10:30:06.465Z,6.50
2018-12-21T10:32:39.645Z,6.60
2018-12-21T10:35:11.817Z,6.70
2018-12-21T10:37:54.043Z,6.70
2018-12-21T10:40:34.610Z,6.70
2018-12-21T10:43:04.970Z,6.80
2018-12-21T10:45:57.680Z,6.80
2018-12-21T10:48:42.362Z,6.90
2018-12-21T10:51:18.544Z,6.90
2018-12-21T10:53:50.254Z,7.00
2018-12-21T10:56:32.998Z,7.00
2018-12-21T10:59:03.355Z,6.90
2018-12-21T11:01:46.217Z,6.90
2018-12-21T11:04:28.661Z,7.00
2018-12-21T11:07:11.453Z,7.00
2018-12-21T11:09:54.197Z,7.10
2018-12-21T11:12:42.016Z,7.00
2018-12-21T11:15:12.781Z,7.10
2018-12-21T11:17:44.046Z,7.00
2018-12-21T11:20:14.838Z,7.10
2018-12-21T11:22:51.718Z,7.10
2018-12-21T11:25:32.427Z,7.10
2018-12-21T11:28:02.772Z,7.00
2018-12-21T11:30:45.166Z,7.00
2018-12-21T11:33:18.464Z,7.00
2018-12-21T11:35:49.874Z,6.90
2018-12-21T11:38:30.413Z,7.00
2018-12-21T11:41:06.910Z,6.90
2018-12-21T11:43:49.494Z,7.00
2018-12-21T11:46:23.581Z,7.10
2018-12-21T11:49:07.324Z,7.00
2018-12-21T11:51:47.416Z,7.10
2018-12-21T11:54:19.730Z,7.10
2018-12-21T11:57:02.686Z,7.00
2018-12-21T11:59:44.875Z,7.00
2018-12-21T12:02:19.713Z,7.00
2018-12-21T12:04:50.509Z,7.00
2018-12-21T12:07:30.726Z,7.10
2018-12-21T12:10:13.683Z,7.10
2018-12-21T12:12:56.851Z,7.10
2018-12-21T12:15:28.727Z,7.20
2018-12-21T12:18:01.470Z,7.20
2018-12-21T12:20:32.004Z,7.20
2018-12-21T12:23:08.675Z,7.20
2018-12-21T12:25:44.573Z,7.20
2018-12-21T12:28:27.298Z,7.20
2018-12-21T12:31:03.124Z,7.30
2018-12-21T12:33:35.362Z,7.30
2018-12-21T12:36:06.857Z,7.30
2018-12-21T12:38:38.363Z,7.40
2018-12-21T12:41:12.690Z,7.40
2018-12-21T12:43:59.628Z,7.50
2018-12-21T12:46:37.050Z,7.50
2018-12-21T12:49:08.469Z,7.60
2018-12-21T12:51:54.598Z,7.60
2018-12-21T12:54:35.009Z,7.70
2018-12-21T12:57:06.552Z,7.60
2018-12-21T12:59:45.323Z,7.70
2018-12-21T13:02:28.350Z,7.60
2018-12-21T13:04:58.816Z,7.60
2018-12-21T13:07:41.160Z,7.70
2018-12-21T13:10:19.305Z,7.70
2018-12-21T13:13:01.589Z,7.70
2018-12-21T13:15:33.781Z,7.70
2018-12-21T13:18:07.496Z,7.80
2018-12-21T13:20:45.848Z,7.90
2018-12-21T13:23:17.885Z,7.80
2018-12-21T13:25:48.583Z,7.90
2018-12-21T13:28:20.845Z,8.00
2018-12-21T13:30:51.353Z,7.90
2018-12-21T13:33:21.952Z,7.90
2018-12-21T13:35:52.431Z,8.00
2018-12-21T13:38:32.798Z,8.00
2018-12-21T13:41:09.218Z,8.00
2018-12-21T13:43:39.611Z,8.10
2018-12-21T13:46:15.949Z,8.00
2018-12-21T13:48:58.848Z,8.10
2018-12-21T13:51:34.679Z,8.00
2018-12-21T13:54:10.906Z,8.10
2018-12-21T13:56:51.257Z,8.10
2018-12-21T13:59:30.039Z,8.20
2018-12-21T14:02:00.421Z,8.20
2018-12-21T14:04:36.485Z,8.20
2018-12-21T14:07:09.132Z,8.20
2018-12-21T14:09:42.578Z,8.20
2018-12-21T14:12:19.271Z,8.30
2018-12-21T14:14:55.707Z,8.40
2018-12-21T14:17:27.636Z,8.30
2018-12-21T14:20:09.339Z,8.40
2018-12-21T14:22:44.367Z,8.30
2018-12-21T14:25:28.643Z,8.30
2018-12-21T14:28:03.810Z,8.40
2018-12-21T14:30:47.439Z,8.40
2018-12-21T14:33:24.652Z,8.50
2018-12-21T14:35:58.478Z,8.40
2018-12-21T14:38:29.696Z,8.40
2018-12-21T14:41:18.398Z,8.40
2018-12-21T14:43:55.301Z,8.40
2018-12-21T14:46:31.660Z,8.40
2018-12-21T14:49:04.482Z,8.40
2018-12-21T14:51:38.094Z,8.40
2018-12-21T14:54:11.498Z,8.50
2018-12-21T14:56:56.615Z,8.40
2018-12-21T14:59:28.791Z,8.40
2018-12-21T15:02:05.977Z,8.50
2018-12-21T15:04:48.288Z,8.50
2018-12-21T15:07:19.606Z,8.50
2018-12-21T15:09:49.966Z,8.50
2018-12-21T15:12:25.769Z,8.50
2018-12-21T15:15:02.087Z,8.50
2018-12-21T15:20:29.060Z,8.60
2018-12-21T15:23:02.659Z,8.50
2018-12-21T15:25:45.914Z,8.60
